Time;durP1;ratioP1;P1;durP2;ratioP2;P2;SDS_P1;SDS_P2;PMS_P1;PMS_P2;Temp;Humidity;BMP_temperature;BMP_pressure;BME280_temperature;BME280_humidity;BME280_pressure;Samples;Min_cycle;Max_cycle;Signal;HPM_P1;HPM_P2
2022/08/09 00:03:26;;;;;;;7.57;2.20;;;;;;;23.05;33.14;98631.81;8445734;28;20229;-73
2022/08/09 00:07:49;;;;;;;5.57;1.93;;;;;;;22.99;32.86;98625.22;8446157;28;20235;-73
2022/08/09 00:11:56;;;;;;;7.23;2.03;;;;;;;22.93;33.05;98623.09;8446567;28;20229;-73
2022/08/09 00:16:08;;;;;;;3.47;2.03;;;;;;;22.83;33.18;98624.88;8446692;28;20236;-73
2022/08/09 00:20:14;;;;;;;5.50;2.00;;;;;;;22.76;33.25;98624.53;8446268;28;20260;-73
2022/08/09 00:24:17;;;;;;;5.33;2.00;;;;;;;22.75;33.73;98630.78;8446327;28;20430;-73
2022/08/09 00:28:22;;;;;;;5.37;1.97;;;;;;;22.70;34.02;98640.88;8446335;28;20286;-73
2022/08/09 00:32:30;;;;;;;5.93;2.20;;;;;;;22.61;33.68;98641.66;8446379;28;20225;-73
2022/08/09 00:36:33;;;;;;;3.63;1.90;;;;;;;22.52;34.48;98632.69;8446417;28;20229;-73
2022/08/09 00:40:36;;;;;;;4.07;2.00;;;;;;;22.53;34.54;98636.19;8446103;28;20237;-73
2022/08/09 00:44:40;;;;;;;3.00;2.13;;;;;;;22.52;34.21;98631.84;8445913;28;20237;-73
2022/08/09 00:48:44;;;;;;;3.13;2.10;;;;;;;22.37;34.65;98629.53;8445967;28;20235;-73
2022/08/09 00:52:52;;;;;;;6.70;2.30;;;;;;;22.32;35.23;98637.00;8445444;28;20225;-73
2022/08/09 00:56:55;;;;;;;4.57;2.20;;;;;;;22.24;35.33;98632.31;8445860;28;20231;-73
2022/08/09 01:00:58;;;;;;;5.13;2.57;;;;;;;22.21;34.86;98629.09;8447773;28;20230;-73
2022/08/09 01:05:06;;;;;;;5.80;2.30;;;;;;;22.11;34.99;98636.09;8451685;28;20230;-73
2022/08/09 01:09:28;;;;;;;6.00;2.17;;;;;;;21.95;35.53;98639.97;8451686;28;20230;-74
2022/08/09 01:13:47;;;;;;;5.27;2.10;;;;;;;21.96;35.44;98638.16;8451336;28;20231;-73
2022/08/09 01:18:04;;;;;;;6.17;2.27;;;;;;;21.81;35.46;98637.59;8450909;28;20254;-73
2022/08/09 01:22:31;;;;;;;3.27;2.03;;;;;;;21.78;35.41;98640.47;8451152;28;20229;-73
2022/08/09 01:26:56;;;;;;;4.40;2.50;;;;;;;21.82;35.49;98632.19;8451243;28;20417;-73
2022/08/09 01:31:03;;;;;;;3.60;2.20;;;;;;;21.74;35.85;98633.75;8436024;28;20250;-73
2022/08/09 01:35:10;;;;;;;3.83;2.00;;;;;;;21.46;35.94;98634.16;8450909;28;20239;-73
2022/08/09 01:39:35;;;;;;;2.93;2.07;;;;;;;21.58;36.21;98642.88;8450736;28;20229;-73
2022/08/09 01:43:41;;;;;;;5.07;2.20;;;;;;;21.56;36.37;98641.34;8450588;28;20230;-73
2022/08/09 01:47:53;;;;;;;2.57;2.20;;;;;;;21.42;36.84;98643.22;8449719;28;20338;-73
2022/08/09 01:51:59;;;;;;;3.27;2.20;;;;;;;21.40;36.81;98639.88;8450120;28;20222;-73
2022/08/09 01:56:09;;;;;;;5.27;2.33;;;;;;;21.40;37.01;98653.06;8450225;28;20229;-73
2022/08/09 02:00:14;;;;;;;4.43;2.13;;;;;;;21.40;37.21;98652.19;8449946;28;20232;-73
2022/08/09 02:04:38;;;;;;;3.97;2.30;;;;;;;21.21;37.41;98645.75;8449987;28;20422;-73
2022/08/09 02:08:47;;;;;;;5.73;2.20;;;;;;;21.21;37.52;98644.88;8449415;28;20224;-73
2022/08/09 02:13:06;;;;;;;4.97;2.23;;;;;;;21.25;37.45;98647.19;8449358;28;20231;-73
2022/08/09 02:17:12;;;;;;;6.13;2.40;;;;;;;21.16;37.55;98649.69;8449643;28;20536;-73
2022/08/09 02:21:40;;;;;;;5.40;2.40;;;;;;;21.10;37.77;98643.09;8449229;28;20402;-73
2022/08/09 02:25:44;;;;;;;3.93;2.20;;;;;;;21.02;38.17;98658.66;8449320;28;20510;-73
2022/08/09 02:29:55;;;;;;;2.77;2.17;;;;;;;21.00;38.30;98657.91;8448498;28;20233;-72
2022/08/09 02:34:10;;;;;;;3.40;2.30;;;;;;;20.99;38.38;98662.34;8449070;28;20310;-73
2022/08/09 02:38:31;;;;;;;3.33;2.20;;;;;;;20.96;38.53;98662.59;8448609;28;20271;-73
2022/08/09 02:42:38;;;;;;;4.13;2.50;;;;;;;20.89;38.70;98656.09;8448711;28;20230;-73
2022/08/09 02:46:42;;;;;;;5.37;2.47;;;;;;;20.84;39.00;98666.13;8448519;28;20236;-73
2022/08/09 02:50:50;;;;;;;4.33;2.37;;;;;;;20.73;38.82;98661.66;8448629;28;20228;-73
2022/08/09 02:54:59;;;;;;;4.70;2.50;;;;;;;20.75;38.68;98654.50;8447842;28;20237;-73
2022/08/09 02:59:19;;;;;;;4.50;2.47;;;;;;;20.82;38.79;98655.72;8448241;28;20228;-73
2022/08/09 03:03:39;;;;;;;5.50;2.70;;;;;;;20.73;38.59;98639.78;8448109;28;20356;-73
2022/08/09 03:08:04;;;;;;;3.63;2.40;;;;;;;20.67;39.01;98648.97;8432987;28;20232;-73
2022/08/09 03:12:08;;;;;;;5.07;2.37;;;;;;;20.64;39.25;98652.69;8447893;28;20249;-73
2022/08/09 03:16:17;;;;;;;5.83;2.27;;;;;;;20.62;39.28;98654.59;8447648;28;20224;-73
2022/08/09 03:20:21;;;;;;;3.53;2.20;;;;;;;20.65;39.35;98650.88;8447541;28;20233;-73
2022/08/09 03:24:26;;;;;;;8.60;2.30;;;;;;;20.66;38.96;98653.41;8446757;28;20230;-73
2022/08/09 03:28:50;;;;;;;5.70;2.80;;;;;;;20.64;38.82;98655.31;8446987;28;20220;-73
2022/08/09 03:32:57;;;;;;;4.77;2.67;;;;;;;20.45;39.85;98658.44;8447161;28;20267;-73
2022/08/09 03:37:00;;;;;;;3.87;2.63;;;;;;;20.43;40.12;98664.78;8447200;28;20234;-72
2022/08/09 03:41:25;;;;;;;3.90;2.60;;;;;;;20.36;40.17;98669.66;8446931;28;20567;-73
2022/08/09 03:45:47;;;;;;;3.80;2.60;;;;;;;20.41;40.07;98678.06;8446581;28;20222;-72
2022/08/09 03:50:10;;;;;;;4.80;2.83;;;;;;;20.37;40.09;98665.22;8446668;28;20237;-73
2022/08/09 03:54:14;;;;;;;5.07;2.73;;;;;;;20.35;40.43;98672.38;8446518;28;20238;-73
2022/08/09 03:58:18;;;;;;;4.83;2.70;;;;;;;20.31;40.52;98672.63;8445958;28;20315;-73
2022/08/09 04:02:24;;;;;;;4.67;2.70;;;;;;;20.25;40.43;98672.22;8446572;28;20239;-73
2022/08/09 04:06:29;;;;;;;8.40;2.90;;;;;;;20.21;40.77;98678.66;8446609;28;20409;-73
2022/08/09 04:10:31;;;;;;;8.80;3.47;;;;;;;20.26;40.55;98679.19;8446409;28;20426;-73
2022/08/09 04:14:36;;;;;;;6.07;2.90;;;;;;;20.25;40.59;98682.75;8446469;28;20255;-73
2022/08/09 04:18:59;;;;;;;4.50;2.93;;;;;;;20.22;40.75;98688.22;8446303;28;20233;-73
2022/08/09 04:23:12;;;;;;;3.77;2.60;;;;;;;20.11;40.90;98692.47;8446459;28;20424;-73
2022/08/09 04:27:19;;;;;;;6.70;3.23;;;;;;;20.21;40.75;98692.63;8446470;28;20407;-73
2022/08/09 04:31:25;;;;;;;6.27;2.83;;;;;;;20.23;40.81;98698.63;8446388;28;20234;-73
2022/08/09 04:35:48;;;;;;;5.47;2.67;;;;;;;20.20;40.96;98698.00;8447712;28;20238;-73
2022/08/09 04:39:52;;;;;;;6.97;2.80;;;;;;;20.23;40.65;98701.25;8452716;28;20578;-73
2022/08/09 04:43:56;;;;;;;4.83;3.10;;;;;;;20.25;40.72;98709.03;8452519;28;20257;-73
2022/08/09 04:48:13;;;;;;;4.90;2.53;;;;;;;20.23;41.08;98711.78;8452474;28;20230;-73
2022/08/09 04:52:16;;;;;;;6.80;3.10;;;;;;;20.26;41.16;98713.38;8452084;28;20230;-73
2022/08/09 04:56:29;;;;;;;4.00;2.87;;;;;;;20.28;41.39;98721.97;8452131;28;20226;-73
2022/08/09 05:00:33;;;;;;;5.67;2.90;;;;;;;20.26;41.49;98732.59;8451812;28;20232;-73
2022/08/09 05:04:39;;;;;;;8.67;3.10;;;;;;;20.29;41.56;98734.16;8452045;28;20236;-73
2022/08/09 05:08:42;;;;;;;4.17;2.87;;;;;;;20.33;41.26;98740.03;8451971;28;20230;-73
2022/08/09 05:12:50;;;;;;;6.10;3.10;;;;;;;20.31;41.34;98741.00;8451356;28;20541;-74
2022/08/09 05:16:58;;;;;;;5.33;3.00;;;;;;;20.40;41.05;98738.66;8451286;28;20236;-73
2022/08/09 05:21:03;;;;;;;5.70;3.03;;;;;;;20.46;41.12;98743.47;8451449;28;20235;-73
2022/08/09 05:25:15;;;;;;;6.50;3.40;;;;;;;20.54;41.01;98740.28;8451137;28;20234;-73
2022/08/09 05:29:20;;;;;;;5.03;3.40;;;;;;;20.67;41.00;98746.34;8451142;28;20524;-73
2022/08/09 05:33:25;;;;;;;7.30;3.23;;;;;;;20.78;41.21;98742.94;8451115;28;20285;-73
2022/08/09 05:37:36;;;;;;;6.10;3.00;;;;;;;20.79;40.02;98742.81;8451080;28;20226;-73
2022/08/09 05:41:49;;;;;;;6.17;2.97;;;;;;;20.95;40.19;98757.47;8450024;28;20226;-73
2022/08/09 05:45:55;;;;;;;5.27;3.10;;;;;;;21.05;40.74;98754.03;8449657;28;20241;-73
2022/08/09 05:49:59;;;;;;;6.77;2.90;;;;;;;21.13;40.84;98760.50;8450675;28;20627;-74
2022/08/09 05:54:23;;;;;;;6.50;2.77;;;;;;;21.31;40.28;98763.56;8450290;28;20225;-73
2022/08/09 05:58:26;;;;;;;5.27;2.80;;;;;;;21.50;40.03;98768.31;8450304;28;20236;-73
2022/08/09 06:02:28;;;;;;;8.10;2.60;;;;;;;21.63;39.60;98767.25;8450104;28;20234;-73
2022/08/09 06:06:34;;;;;;;7.37;2.40;;;;;;;21.78;39.58;98773.13;8449873;28;20236;-73
2022/08/09 06:10:38;;;;;;;6.20;2.97;;;;;;;21.95;39.29;98774.44;8449820;28;20321;-73
2022/08/09 06:14:41;;;;;;;6.83;2.50;;;;;;;22.12;38.04;98769.63;8449682;28;20531;-73
2022/08/09 06:18:43;;;;;;;8.23;2.50;;;;;;;21.81;37.32;98779.94;8449741;28;20549;-76
2022/08/09 06:22:46;;;;;;;6.27;2.00;;;;;;;22.08;36.65;98776.09;8449463;28;20234;-73
2022/08/09 06:26:52;;;;;;;11.87;2.23;;;;;;;22.22;36.43;98783.78;8448835;28;20505;-73
2022/08/09 06:30:55;;;;;;;10.10;2.50;;;;;;;22.30;36.21;98785.84;8449232;28;20238;-71
2022/08/09 06:34:57;;;;;;;7.70;2.40;;;;;;;22.71;35.84;98786.91;8448999;28;20557;-72
2022/08/09 06:39:01;;;;;;;7.23;2.50;;;;;;;23.12;35.61;98788.00;8448941;28;20229;-72
2022/08/09 06:43:12;;;;;;;5.27;2.17;;;;;;;23.38;35.14;98789.28;8423374;28;20230;-73
2022/08/09 06:47:15;;;;;;;7.40;2.30;;;;;;;23.51;35.73;98798.81;8418065;28;20445;-73
2022/08/09 06:51:20;;;;;;;12.67;2.43;;;;;;;23.80;34.11;98801.69;8448413;28;20224;-73
2022/08/09 06:55:28;;;;;;;11.33;2.23;;;;;;;24.12;34.13;98795.38;8448372;28;20249;-73
2022/08/09 06:59:35;;;;;;;15.67;2.40;;;;;;;24.07;33.47;98801.09;8447642;28;20231;-74
2022/08/09 07:03:59;;;;;;;6.87;2.20;;;;;;;24.20;32.95;98804.34;8447911;28;20434;-73
2022/08/09 07:08:05;;;;;;;8.30;2.30;;;;;;;23.91;33.27;98795.44;8448091;28;20240;-74
2022/08/09 07:12:08;;;;;;;10.70;2.50;;;;;;;23.95;33.34;98797.72;8447754;28;20501;-73
2022/08/09 07:16:21;;;;;;;13.53;2.23;;;;;;;24.28;32.51;98801.03;8447737;28;20517;-74
2022/08/09 07:20:44;;;;;;;9.00;1.97;;;;;;;24.52;31.92;98803.34;8447588;28;20232;-73
2022/08/09 07:24:49;;;;;;;13.23;2.17;;;;;;;24.44;32.06;98803.13;8447049;28;20226;-73
2022/08/09 07:28:53;;;;;;;6.37;1.87;;;;;;;24.62;31.90;98803.38;8444272;28;20222;-72
2022/08/09 07:33:16;;;;;;;4.80;1.80;;;;;;;25.34;32.10;98796.00;8447404;28;20241;-75
2022/08/09 07:37:19;;;;;;;5.73;2.37;;;;;;;25.67;31.77;98802.63;8447271;28;20347;-75
2022/08/09 07:41:24;;;;;;;9.17;1.90;;;;;;;25.93;31.52;98802.00;8446800;28;20543;-74
2022/08/09 07:45:29;;;;;;;6.27;1.73;;;;;;;26.08;30.40;98795.25;8447141;28;20227;-74
2022/08/09 07:49:41;;;;;;;11.07;2.20;;;;;;;26.39;29.75;98802.94;8447248;28;20576;-74
2022/08/09 07:54:05;;;;;;;6.37;1.53;;;;;;;26.69;29.31;98803.59;8446501;28;20245;-74
2022/08/09 07:58:10;;;;;;;4.13;1.47;;;;;;;26.86;28.74;98800.09;8446692;28;20228;-74
2022/08/09 08:02:15;;;;;;;3.47;1.70;;;;;;;27.07;29.10;98793.66;8446591;28;20416;-74
2022/08/09 08:06:23;;;;;;;4.90;1.57;;;;;;;27.36;28.12;98797.88;8446594;28;20304;-74
2022/08/09 08:10:36;;;;;;;11.00;2.03;;;;;;;26.86;26.94;98797.44;8450263;28;20283;-74
2022/08/09 08:14:39;;;;;;;13.17;1.50;;;;;;;26.87;26.57;98796.47;8453404;28;20545;-74
2022/08/09 08:18:42;;;;;;;3.17;1.40;;;;;;;26.75;27.17;98803.00;8453534;28;20571;-74
2022/08/09 08:22:49;;;;;;;4.73;1.53;;;;;;;27.48;26.55;98791.34;8452804;28;20276;-74
2022/08/09 08:26:57;;;;;;;5.57;1.90;;;;;;;27.60;27.05;98787.41;8453252;28;20420;-74
2022/08/09 08:31:00;;;;;;;3.53;1.40;;;;;;;27.78;26.35;98784.72;8443800;28;20229;-75
2022/08/09 08:35:16;;;;;;;4.00;1.37;;;;;;;28.33;26.20;98790.63;8453026;28;20423;-75
2022/08/09 08:39:21;;;;;;;7.60;1.70;;;;;;;28.68;24.25;98792.25;8452880;28;20231;-75
2022/08/09 08:43:26;;;;;;;3.80;1.60;;;;;;;28.66;24.42;98804.91;8452576;28;20235;-75
2022/08/09 08:47:29;;;;;;;3.33;1.33;;;;;;;28.45;23.76;98800.00;8452557;28;20269;-75
2022/08/09 08:51:32;;;;;;;4.63;1.70;;;;;;;28.37;23.82;98789.28;8452091;28;20219;-76
2022/08/09 08:55:56;;;;;;;7.03;1.70;;;;;;;28.80;26.71;98806.09;8451878;28;20263;-76
2022/08/09 09:00:02;;;;;;;6.93;1.80;;;;;;;28.77;23.10;98793.94;8451935;28;20300;-75
2022/08/09 09:04:15;;;;;;;5.63;1.70;;;;;;;28.99;22.92;98797.78;8451848;28;20238;-76
2022/08/09 09:08:32;;;;;;;4.57;1.67;;;;;;;29.02;23.02;98796.63;8450947;28;20320;-72
2022/08/09 09:12:45;;;;;;;5.83;1.47;;;;;;;28.81;21.98;98802.44;8451913;28;20344;-75
2022/08/09 09:16:48;;;;;;;2.77;1.40;;;;;;;29.31;22.08;98793.47;8451120;28;20235;-74
2022/08/09 09:20:50;;;;;;;4.97;1.70;;;;;;;29.70;22.85;98791.91;8450818;28;20237;-75
2022/08/09 09:24:55;;;;;;;4.83;1.93;;;;;;;28.96;21.51;98783.94;8451497;28;20233;-75
2022/08/09 09:29:27;;;;;;;4.07;1.70;;;;;;;29.44;22.08;98780.47;8451136;28;20229;-75
2022/08/09 09:33:50;;;;;;;4.63;1.67;;;;;;;30.19;22.57;98779.25;8450684;28;20237;-75
2022/08/09 09:37:59;;;;;;;2.27;1.60;;;;;;;30.20;20.69;98783.59;8451099;28;20305;-76
2022/08/09 09:42:05;;;;;;;6.77;2.17;;;;;;;29.86;20.44;98783.06;8450665;28;20246;-75
2022/08/09 09:46:14;;;;;;;4.00;2.00;;;;;;;30.33;20.39;98777.72;8450324;28;20232;-75
2022/08/09 09:50:41;;;;;;;5.47;2.10;;;;;;;30.24;20.72;98773.41;8450300;28;20227;-76
2022/08/09 09:55:00;;;;;;;3.33;1.80;;;;;;;30.83;20.10;98780.09;8449729;28;20240;-75
2022/08/09 09:59:04;;;;;;;3.83;1.70;;;;;;;30.58;19.49;98778.41;8450193;28;20241;-75
2022/08/09 10:03:09;;;;;;;4.57;1.77;;;;;;;30.76;20.59;98777.28;8450256;28;20242;-75
2022/08/09 10:07:24;;;;;;;3.83;1.90;;;;;;;30.24;20.21;98776.06;8449962;28;20435;-75
2022/08/09 10:11:28;;;;;;;2.47;1.53;;;;;;;30.96;20.32;98773.16;8449947;28;20267;-75
2022/08/09 10:15:52;;;;;;;3.80;1.77;;;;;;;30.98;20.48;98771.13;8449203;28;20230;-74
2022/08/09 10:20:27;;;;;;;2.03;1.80;;;;;;;31.44;20.92;98758.69;8449239;28;20226;-74
2022/08/09 10:24:39;;;;;;;6.20;1.93;;;;;;;31.14;19.70;98778.19;8449841;28;20234;-75
2022/08/09 10:28:44;;;;;;;4.40;2.00;;;;;;;31.14;19.79;98769.34;8449259;28;20224;-74
2022/08/09 10:33:08;;;;;;;4.53;1.70;;;;;;;31.75;19.79;98762.03;8448654;28;20239;-74
2022/08/09 10:37:32;;;;;;;7.53;1.90;;;;;;;31.72;20.05;98759.75;8449227;28;20386;-75
2022/08/09 10:41:40;;;;;;;3.40;1.80;;;;;;;31.76;18.93;98761.03;8448857;28;20230;-75
2022/08/09 10:45:44;;;;;;;7.27;1.80;;;;;;;31.15;19.59;98755.78;8448456;28;20246;-75
2022/08/09 10:50:10;;;;;;;4.53;1.63;;;;;;;31.76;19.62;98753.00;8448479;28;20225;-75
2022/08/09 10:54:23;;;;;;;5.10;1.77;;;;;;;32.05;18.17;98742.50;8448494;28;20254;-75
2022/08/09 10:58:30;;;;;;;4.87;1.80;;;;;;;31.15;19.22;98745.09;8448478;28;20282;-75
2022/08/09 11:02:38;;;;;;;10.73;2.07;;;;;;;31.44;18.67;98742.66;8448192;28;20333;-75
2022/08/09 11:07:27;;;;;;;3.57;1.90;;;;;;;31.33;19.53;98747.41;8448037;28;20237;-75
2022/08/09 11:12:20;;;;;;;11.07;1.90;;;;;;;30.93;20.13;98744.09;8446473;28;20236;-75
2022/08/09 11:16:33;;;;;;;5.00;1.80;;;;;;;31.68;19.44;98745.09;8433467;28;20251;-75
2022/08/09 11:20:40;;;;;;;2.73;1.50;;;;;;;31.01;19.38;98747.72;8447827;28;20417;-74
2022/08/09 11:25:06;;;;;;;3.57;1.60;;;;;;;31.55;18.74;98736.88;8434524;28;20229;-75
2022/08/09 11:29:44;;;;;;;4.77;1.60;;;;;;;31.48;20.10;98742.13;8420883;28;20570;-73
2022/08/09 11:34:12;;;;;;;6.17;2.10;;;;;;;30.98;19.49;98741.72;8429310;28;20222;-73
2022/08/09 11:38:17;;;;;;;5.97;1.83;;;;;;;31.34;19.53;98742.91;8441100;28;20231;-75
2022/08/09 11:42:38;;;;;;;5.53;1.67;;;;;;;31.84;19.37;98735.19;8438202;28;20563;-74
2022/08/09 11:46:59;;;;;;;3.70;1.73;;;;;;;31.19;19.17;98737.53;8446637;28;20228;-75
2022/08/09 11:51:04;;;;;;;3.10;1.60;;;;;;;31.45;19.15;98730.91;8446634;28;20227;-75
2022/08/09 11:55:34;;;;;;;4.60;1.80;;;;;;;32.07;19.48;98727.06;8446644;28;20221;-76
2022/08/09 11:59:56;;;;;;;4.73;1.80;;;;;;;32.52;19.34;98725.09;8446443;28;20240;-75
2022/08/09 12:04:00;;;;;;;5.53;1.80;;;;;;;32.64;18.49;98704.81;8446930;28;20228;-77
2022/08/09 12:08:11;;;;;;;3.87;1.90;;;;;;;32.99;19.10;98714.81;8447115;28;20233;-78
2022/08/09 12:12:24;;;;;;;3.03;1.60;;;;;;;32.76;17.84;98704.28;8446812;28;20235;-76
2022/08/09 12:16:43;;;;;;;3.30;1.80;;;;;;;32.19;17.89;98703.28;8446817;28;20232;-76
2022/08/09 12:20:48;;;;;;;6.57;1.80;;;;;;;32.79;17.47;98706.59;8446188;28;20244;-75
2022/08/09 12:25:10;;;;;;;4.20;1.60;;;;;;;32.81;18.06;98704.56;8444731;28;20236;-75
2022/08/09 12:29:17;;;;;;;4.17;1.80;;;;;;;32.54;17.65;98712.31;8428979;28;20524;-76
2022/08/09 12:33:41;;;;;;;3.20;1.90;;;;;;;32.33;17.68;98721.19;8428748;28;20218;-75
2022/08/09 12:38:17;;;;;;;2.40;1.50;;;;;;;33.24;17.63;98701.81;8411705;28;20239;-76
2022/08/09 12:42:44;;;;;;;5.33;1.80;;;;;;;33.05;17.54;98700.59;8430671;28;20404;-78
2022/08/09 12:46:48;;;;;;;4.20;1.70;;;;;;;32.53;17.41;98699.94;8395660;28;20231;-75
2022/08/09 12:50:51;;;;;;;3.40;1.70;;;;;;;32.88;18.21;98710.78;8420224;28;20235;-75
2022/08/09 12:54:54;;;;;;;2.00;1.50;;;;;;;33.46;17.85;98694.53;8428361;28;20230;-74
2022/08/09 12:59:20;;;;;;;2.53;1.57;;;;;;;33.55;17.33;98682.59;8423326;28;20224;-75
2022/08/09 13:03:26;;;;;;;3.03;1.70;;;;;;;33.83;18.20;98669.13;8423865;28;20299;-74
2022/08/09 13:08:13;;;;;;;4.77;1.37;;;;;;;33.99;17.71;98673.28;8433985;28;20420;-73
2022/08/09 13:12:16;;;;;;;4.73;1.40;;;;;;;33.42;17.36;98666.41;8420818;28;20226;-73
2022/08/09 13:16:23;;;;;;;5.43;1.77;;;;;;;33.71;18.16;98672.56;8418111;28;20255;-74
2022/08/09 13:20:33;;;;;;;2.87;1.70;;;;;;;33.04;18.63;98670.28;8418104;28;20236;-74
2022/08/09 13:25:00;;;;;;;3.73;1.70;;;;;;;33.69;18.22;98660.16;8411610;28;20258;-74
2022/08/09 13:29:07;;;;;;;3.10;1.53;;;;;;;33.90;17.63;98655.69;8417726;28;20481;-73
2022/08/09 13:33:21;;;;;;;2.50;1.60;;;;;;;33.09;17.42;98656.25;8417729;28;20232;-74
2022/08/09 13:37:24;;;;;;;2.93;1.40;;;;;;;31.92;19.26;98660.09;8417210;28;20442;-74
2022/08/09 13:41:47;;;;;;;7.90;1.67;;;;;;;32.41;17.95;98656.72;8417063;28;20229;-74
2022/08/09 13:46:02;;;;;;;3.03;1.70;;;;;;;32.82;17.60;98645.34;8383562;28;20404;-74
2022/08/09 13:50:26;;;;;;;4.87;1.40;;;;;;;33.02;18.34;98652.72;8384202;28;20238;-74
2022/08/09 13:54:33;;;;;;;5.47;1.70;;;;;;;32.66;17.22;98648.31;8436845;28;20235;-74
2022/08/09 13:58:36;;;;;;;2.33;1.60;;;;;;;33.17;17.96;98650.78;8450074;28;20235;-74
2022/08/09 14:02:41;;;;;;;3.87;1.50;;;;;;;33.22;17.67;98639.44;8450150;28;20231;-74
2022/08/09 14:07:05;;;;;;;1.77;1.57;;;;;;;33.01;17.81;98646.50;8448936;28;20236;-74
2022/08/09 14:11:09;;;;;;;2.07;1.40;;;;;;;32.88;17.87;98636.53;8449745;28;20222;-74
2022/08/09 14:15:18;;;;;;;3.93;1.60;;;;;;;32.35;18.22;98652.16;8449592;28;20235;-75
2022/08/09 14:19:41;;;;;;;4.50;1.67;;;;;;;32.32;17.85;98649.84;8449306;28;20524;-75
2022/08/09 14:23:45;;;;;;;2.30;1.43;;;;;;;31.72;18.02;98647.31;8449226;28;20233;-74
2022/08/09 14:27:58;;;;;;;2.30;1.30;;;;;;;32.49;18.13;98651.22;8449067;28;20432;-74
2022/08/09 14:32:01;;;;;;;4.30;1.60;;;;;;;32.34;17.79;98642.44;8449105;28;20283;-74
2022/08/09 14:36:13;;;;;;;8.13;1.67;;;;;;;32.90;18.32;98636.31;8449016;28;20357;-74
2022/08/09 14:40:23;;;;;;;5.57;1.70;;;;;;;32.97;18.71;98647.94;8448896;28;20229;-74
2022/08/09 14:44:47;;;;;;;3.47;1.60;;;;;;;33.02;18.66;98642.00;8448457;28;20234;-74
2022/08/09 14:49:02;;;;;;;2.63;1.60;;;;;;;32.81;17.91;98637.50;8448065;28;20228;-74
2022/08/09 14:53:06;;;;;;;4.00;1.47;;;;;;;32.52;17.75;98636.63;8448375;28;20562;-74
2022/08/09 14:57:15;;;;;;;3.40;1.40;;;;;;;32.19;18.72;98631.78;8448357;28;20248;-74
2022/08/09 15:01:18;;;;;;;2.60;1.27;;;;;;;32.10;18.13;98636.44;8447916;28;20574;-74
2022/08/09 15:05:22;;;;;;;5.07;1.60;;;;;;;32.32;17.92;98626.53;8447932;28;20240;-74
2022/08/09 15:09:25;;;;;;;4.10;1.50;;;;;;;32.38;18.06;98629.47;8444285;28;20239;-74
2022/08/09 15:13:50;;;;;;;3.90;1.50;;;;;;;32.53;18.78;98624.88;8413546;28;20231;-75
2022/08/09 15:18:07;;;;;;;3.10;1.50;;;;;;;32.13;18.80;98622.66;8413933;28;20529;-74
2022/08/09 15:22:16;;;;;;;3.70;1.40;;;;;;;31.78;18.87;98621.63;8413496;28;20291;-74
2022/08/09 15:26:23;;;;;;;3.67;1.53;;;;;;;31.10;19.70;98628.94;8413890;28;20343;-74
2022/08/09 15:30:34;;;;;;;2.83;1.60;;;;;;;30.69;19.59;98619.47;8414227;28;20233;-74
2022/08/09 15:34:59;;;;;;;6.60;1.80;;;;;;;30.95;19.26;98611.03;8413236;28;20231;-75
2022/08/09 15:39:02;;;;;;;2.80;1.53;;;;;;;31.36;19.58;98615.13;8413637;28;20232;-75
2022/08/09 15:43:06;;;;;;;3.43;1.80;;;;;;;31.39;19.01;98609.38;8413920;28;20238;-73
2022/08/09 15:47:16;;;;;;;3.30;1.43;;;;;;;31.18;19.20;98608.28;8413656;28;20305;-73
2022/08/09 15:51:25;;;;;;;6.80;1.50;;;;;;;31.16;18.57;98610.31;8417472;28;20216;-74
2022/08/09 15:55:48;;;;;;;6.40;1.80;;;;;;;30.87;18.91;98612.94;8446559;28;20226;-73
2022/08/09 16:00:14;;;;;;;5.30;1.63;;;;;;;30.38;19.36;98609.69;8446596;28;20225;-75
2022/08/09 16:04:29;;;;;;;5.33;1.83;;;;;;;29.97;20.17;98609.97;8446825;28;20423;-76
2022/08/09 16:08:32;;;;;;;2.03;1.70;;;;;;;29.88;20.03;98607.53;8446398;28;20231;-75
2022/08/09 16:12:35;;;;;;;2.10;1.73;;;;;;;29.84;20.30;98607.06;8446673;28;20226;-77
2022/08/09 16:16:44;;;;;;;3.00;1.50;;;;;;;29.68;20.57;98612.44;8446642;28;20239;-76
2022/08/09 16:20:51;;;;;;;3.73;1.60;;;;;;;29.55;20.48;98608.50;8446126;28;20287;-75
2022/08/09 16:24:54;;;;;;;6.07;1.60;;;;;;;29.48;20.74;98602.19;8446371;28;20237;-76
2022/08/09 16:29:01;;;;;;;5.67;1.60;;;;;;;29.38;20.47;98594.41;8446424;28;20293;-74
2022/08/09 16:33:14;;;;;;;4.17;1.90;;;;;;;29.58;20.07;98594.81;8452347;28;20222;-74
2022/08/09 16:37:19;;;;;;;2.23;1.57;;;;;;;29.48;19.91;98596.88;8452762;28;20229;-74
2022/08/09 16:41:42;;;;;;;3.30;1.87;;;;;;;29.66;20.43;98603.78;8425082;28;20234;-73
2022/08/09 16:46:06;;;;;;;2.03;1.40;;;;;;;29.59;20.17;98598.31;8451820;28;20243;-74
2022/08/09 16:50:12;;;;;;;4.30;1.50;;;;;;;29.54;20.31;98600.66;8452501;28;20267;-73
2022/08/09 16:54:35;;;;;;;3.37;1.67;;;;;;;29.33;20.60;98599.41;8452407;28;20272;-75
2022/08/09 16:58:43;;;;;;;2.93;1.47;;;;;;;29.38;20.52;98604.25;8452307;28;20367;-74
2022/08/09 17:02:52;;;;;;;4.53;1.67;;;;;;;29.20;21.05;98602.63;8451726;28;20226;-74
2022/08/09 17:06:59;;;;;;;3.03;1.67;;;;;;;29.14;21.23;98598.00;8451861;28;20241;-75
2022/08/09 17:11:23;;;;;;;2.70;1.53;;;;;;;29.02;20.86;98594.81;8452004;28;20528;-74
2022/08/09 17:15:44;;;;;;;2.70;1.50;;;;;;;29.07;20.90;98594.31;8451914;28;20236;-75
2022/08/09 17:20:05;;;;;;;2.73;1.57;;;;;;;29.00;21.05;98602.16;8451661;28;20241;-74
2022/08/09 17:24:28;;;;;;;3.03;1.57;;;;;;;29.03;20.85;98600.97;8451505;28;20226;-74
2022/08/09 17:28:34;;;;;;;3.73;1.77;;;;;;;28.83;20.50;98604.03;8451457;28;20288;-75
2022/08/09 17:32:38;;;;;;;4.67;1.60;;;;;;;28.87;20.72;98604.53;8451479;28;20222;-74
2022/08/09 17:36:46;;;;;;;3.30;1.43;;;;;;;28.76;21.05;98607.53;8451754;28;20229;-74
2022/08/09 17:40:55;;;;;;;4.13;1.50;;;;;;;28.70;20.73;98608.22;8451099;28;20426;-74
2022/08/09 17:45:00;;;;;;;3.63;1.57;;;;;;;28.61;21.05;98618.88;8449509;28;20253;-76
2022/08/09 17:49:08;;;;;;;4.67;1.67;;;;;;;28.57;21.37;98619.38;8451538;28;20430;-74
2022/08/09 17:53:11;;;;;;;2.97;1.50;;;;;;;28.47;21.21;98617.69;8436534;28;20230;-76
2022/08/09 17:57:24;;;;;;;2.00;1.80;;;;;;;28.40;21.29;98626.50;8443328;28;20240;-74
2022/08/09 18:01:48;;;;;;;5.23;1.90;;;;;;;28.36;21.84;98627.84;8449959;28;20231;-74
2022/08/09 18:06:11;;;;;;;6.30;1.80;;;;;;;28.26;22.17;98626.16;8449349;28;20347;-74
2022/08/09 18:10:33;;;;;;;5.60;1.93;;;;;;;28.15;22.24;98621.16;8449680;28;20232;-75
2022/08/09 18:14:35;;;;;;;5.50;2.00;;;;;;;28.13;23.12;98627.66;8450016;28;20287;-73
2022/08/09 18:18:53;;;;;;;2.67;1.70;;;;;;;28.02;22.83;98632.28;8449162;28;20435;-74
2022/08/09 18:22:57;;;;;;;3.97;2.00;;;;;;;27.93;23.26;98635.94;8449403;28;20233;-71
2022/08/09 18:27:07;;;;;;;7.87;2.20;;;;;;;27.83;23.92;98638.69;8449412;28;22383;-74
2022/08/09 18:31:10;;;;;;;3.20;1.90;;;;;;;27.74;23.59;98641.50;8449317;28;20228;-74
2022/08/09 18:35:15;;;;;;;3.57;1.90;;;;;;;27.70;23.88;98640.97;8449442;28;20439;-74
2022/08/09 18:39:17;;;;;;;5.70;2.70;;;;;;;27.64;24.14;98641.63;8448994;28;20294;-74
2022/08/09 18:43:21;;;;;;;7.40;2.73;;;;;;;27.51;24.70;98644.72;8448975;28;20230;-74
2022/08/09 18:47:24;;;;;;;9.17;2.30;;;;;;;27.50;24.48;98649.22;8448180;28;20289;-73
2022/08/09 18:51:35;;;;;;;3.83;1.80;;;;;;;27.46;24.55;98647.88;8448647;28;20225;-74
2022/08/09 18:55:57;;;;;;;4.17;1.60;;;;;;;27.38;24.53;98652.31;8447119;28;20251;-73
2022/08/09 19:00:09;;;;;;;15.23;2.30;;;;;;;27.30;24.85;98664.59;8448351;28;20454;-74
2022/08/09 19:04:12;;;;;;;4.20;2.00;;;;;;;27.27;24.91;98672.03;8448365;28;20317;-74
2022/08/09 19:08:17;;;;;;;7.10;2.30;;;;;;;27.21;24.71;98670.00;8447756;28;20236;-74
2022/08/09 19:12:22;;;;;;;5.90;2.30;;;;;;;27.16;25.05;98678.41;8448140;28;20409;-74
2022/08/09 19:16:25;;;;;;;3.67;2.27;;;;;;;27.13;25.79;98688.53;8447890;28;20552;-74
2022/08/09 19:20:38;;;;;;;3.73;2.27;;;;;;;27.09;25.86;98691.50;8447931;28;20226;-74
2022/08/09 19:24:43;;;;;;;8.67;3.00;;;;;;;27.08;26.63;98686.34;8447591;28;20280;-74
2022/08/09 19:29:07;;;;;;;7.93;3.03;;;;;;;26.99;26.45;98690.75;8447190;28;20242;-73
2022/08/09 19:33:19;;;;;;;3.90;2.10;;;;;;;26.92;25.73;98697.69;8447424;28;20229;-73
2022/08/09 19:37:23;;;;;;;4.57;2.00;;;;;;;26.88;26.02;98691.88;8447307;28;20442;-73
2022/08/09 19:41:27;;;;;;;5.83;2.23;;;;;;;26.91;27.06;98698.69;8446707;28;20245;-74
2022/08/09 19:45:37;;;;;;;6.33;2.93;;;;;;;26.91;27.55;98704.81;8447336;28;20236;-74